sensor_id;sensor_type;location;lat;lon;timestamp;temperature;humidity
55151;DHT22;41041;43.162;20.538;2023-05-07T09:41:07;537.90;2278.40
55151;DHT22;41041;43.162;20.538;2023-05-07T09:43:35;537.90;2329.60
55151;DHT22;41041;43.162;20.538;2023-05-07T10:01:17;563.50;2099.20
55151;DHT22;41041;43.162;20.538;2023-05-07T10:03:45;563.30;2099.20
55151;DHT22;41041;43.162;20.538;2023-05-07T10:06:12;563.30;2124.80
55151;DHT22;41041;43.162;20.538;2023-05-07T10:11:07;563.60;2099.20
55151;DHT22;41041;43.162;20.538;2023-05-07T10:13:33;563.60;2073.60
55151;DHT22;41041;43.162;20.538;2023-05-07T10:23:38;564.10;1996.80
55151;DHT22;41041;43.162;20.538;2023-05-07T10:26:07;564.00;2048.00
55151;DHT22;41041;43.162;20.538;2023-05-07T10:28:38;564.00;2022.40
55151;DHT22;41041;43.162;20.538;2023-05-07T10:33:42;588.80;1996.80
55151;DHT22;41041;43.162;20.538;2023-05-07T10:38:35;589.20;1945.60
55151;DHT22;41041;43.162;20.538;2023-05-07T10:41:06;588.90;1945.60
55151;DHT22;41041;43.162;20.538;2023-05-07T10:43:43;588.90;1945.60
55151;DHT22;41041;43.162;20.538;2023-05-07T10:51:38;588.90;1945.60
55151;DHT22;41041;43.162;20.538;2023-05-07T10:56:42;588.90;1945.60
55151;DHT22;41041;43.162;20.538;2023-05-07T11:01:58;588.90;1894.40
55151;DHT22;41041;43.162;20.538;2023-05-07T11:04:32;589.00;1945.60
55151;DHT22;41041;43.162;20.538;2023-05-07T11:09:57;589.00;1920.00
55151;DHT22;41041;43.162;20.538;2023-05-07T11:15:05;589.10;1945.60
55151;DHT22;41041;43.162;20.538;2023-05-07T11:17:32;589.10;1920.00
55151;DHT22;41041;43.162;20.538;2023-05-07T11:20:01;589.10;1894.40
55151;DHT22;41041;43.162;20.538;2023-05-07T11:25:00;589.40;1894.40
55151;DHT22;41041;43.162;20.538;2023-05-07T11:27:27;589.50;1945.60
55151;DHT22;41041;43.162;20.538;2023-05-07T11:29:53;589.60;1868.80
55151;DHT22;41041;43.162;20.538;2023-05-07T11:32:29;589.60;1843.20
55151;DHT22;41041;43.162;20.538;2023-05-07T11:34:56;589.60;1817.60
55151;DHT22;41041;43.162;20.538;2023-05-07T11:37:24;589.60;1817.60
55151;DHT22;41041;43.162;20.538;2023-05-07T11:39:50;589.60;1817.60
55151;DHT22;41041;43.162;20.538;2023-05-07T11:42:32;589.70;1792.00
55151;DHT22;41041;43.162;20.538;2023-05-07T11:45:01;589.70;1792.00
55151;DHT22;41041;43.162;20.538;2023-05-07T11:47:30;589.70;1868.80
55151;DHT22;41041;43.162;20.538;2023-05-07T11:49:56;614.40;1843.20
55151;DHT22;41041;43.162;20.538;2023-05-07T11:52:24;614.50;1843.20
55151;DHT22;41041;43.162;20.538;2023-05-07T11:54:54;614.70;1817.60
55151;DHT22;41041;43.162;20.538;2023-05-07T11:57:21;614.80;1894.40
55151;DHT22;41041;43.162;20.538;2023-05-07T11:59:47;614.90;1766.40
55151;DHT22;41041;43.162;20.538;2023-05-07T12:02:17;614.90;1792.00
55151;DHT22;41041;43.162;20.538;2023-05-07T12:04:44;615.00;1817.60
55151;DHT22;41041;43.162;20.538;2023-05-07T12:07:13;615.00;1792.00
55151;DHT22;41041;43.162;20.538;2023-05-07T12:09:40;615.00;1766.40
55151;DHT22;41041;43.162;20.538;2023-05-07T12:12:06;615.00;1766.40
55151;DHT22;41041;43.162;20.538;2023-05-07T12:14:32;615.00;1766.40
55151;DHT22;41041;43.162;20.538;2023-05-07T12:16:59;614.90;1792.00
55151;DHT22;41041;43.162;20.538;2023-05-07T12:19:29;614.80;1740.80
55151;DHT22;41041;43.162;20.538;2023-05-07T12:21:56;614.80;1792.00
55151;DHT22;41041;43.162;20.538;2023-05-07T12:24:22;614.80;1792.00
55151;DHT22;41041;43.162;20.538;2023-05-07T12:26:48;614.90;1792.00
55151;DHT22;41041;43.162;20.538;2023-05-07T12:29:22;614.90;1766.40
55151;DHT22;41041;43.162;20.538;2023-05-07T12:31:49;614.90;1740.80
55151;DHT22;41041;43.162;20.538;2023-05-07T12:34:16;615.00;1766.40
55151;DHT22;41041;43.162;20.538;2023-05-07T12:36:42;615.20;1740.80
55151;DHT22;41041;43.162;20.538;2023-05-07T12:39:09;615.30;1715.20
55151;DHT22;41041;43.162;20.538;2023-05-07T12:41:57;615.30;1689.60
55151;DHT22;41041;43.162;20.538;2023-05-07T12:44:32;640.00;1689.60
55151;DHT22;41041;43.162;20.538;2023-05-07T12:47:01;640.00;1715.20
55151;DHT22;41041;43.162;20.538;2023-05-07T12:49:27;615.30;1689.60
55151;DHT22;41041;43.162;20.538;2023-05-07T12:51:53;615.20;1689.60
55151;DHT22;41041;43.162;20.538;2023-05-07T12:54:33;615.30;1740.80
55151;DHT22;41041;43.162;20.538;2023-05-07T12:57:07;640.10;1638.40
55151;DHT22;41041;43.162;20.538;2023-05-07T12:59:39;640.30;1689.60
55151;DHT22;41041;43.162;20.538;2023-05-07T13:02:09;640.50;1664.00
55151;DHT22;41041;43.162;20.538;2023-05-07T13:04:35;640.60;1715.20
55151;DHT22;41041;43.162;20.538;2023-05-07T13:07:01;640.70;1638.40
55151;DHT22;41041;43.162;20.538;2023-05-07T13:09:28;640.80;1612.80
55151;DHT22;41041;43.162;20.538;2023-05-07T13:11:57;640.80;1587.20
55151;DHT22;41041;43.162;20.538;2023-05-07T13:14:25;640.70;1612.80
55151;DHT22;41041;43.162;20.538;2023-05-07T13:16:51;640.60;1587.20
55151;DHT22;41041;43.162;20.538;2023-05-07T13:19:16;640.50;1587.20
55151;DHT22;41041;43.162;20.538;2023-05-07T13:21:42;640.40;1638.40
55151;DHT22;41041;43.162;20.538;2023-05-07T13:24:08;640.30;1638.40
55151;DHT22;41041;43.162;20.538;2023-05-07T13:26:34;640.30;1664.00
55151;DHT22;41041;43.162;20.538;2023-05-07T13:29:00;640.10;1638.40
55151;DHT22;41041;43.162;20.538;2023-05-07T13:31:30;640.10;1689.60
55151;DHT22;41041;43.162;20.538;2023-05-07T13:33:56;615.20;1689.60
55151;DHT22;41041;43.162;20.538;2023-05-07T13:36:22;615.20;1740.80
55151;DHT22;41041;43.162;20.538;2023-05-07T13:39:15;640.00;1689.60
55151;DHT22;41041;43.162;20.538;2023-05-07T13:41:41;615.20;1715.20
55151;DHT22;41041;43.162;20.538;2023-05-07T13:44:12;615.30;1740.80
55151;DHT22;41041;43.162;20.538;2023-05-07T13:46:38;640.10;1766.40
55151;DHT22;41041;43.162;20.538;2023-05-07T13:49:04;640.20;1766.40
55151;DHT22;41041;43.162;20.538;2023-05-07T13:51:30;640.10;1715.20
55151;DHT22;41041;43.162;20.538;2023-05-07T13:53:56;640.10;1664.00
55151;DHT22;41041;43.162;20.538;2023-05-07T13:56:23;640.10;1689.60
55151;DHT22;41041;43.162;20.538;2023-05-07T13:58:53;640.10;1689.60
55151;DHT22;41041;43.162;20.538;2023-05-07T14:01:38;640.10;1740.80
55151;DHT22;41041;43.162;20.538;2023-05-07T14:04:04;640.00;1689.60
55151;DHT22;41041;43.162;20.538;2023-05-07T14:06:29;640.00;1664.00
55151;DHT22;41041;43.162;20.538;2023-05-07T14:08:55;640.30;1664.00
55151;DHT22;41041;43.162;20.538;2023-05-07T14:11:26;640.40;1638.40
55151;DHT22;41041;43.162;20.538;2023-05-07T14:13:55;640.50;1612.80
55151;DHT22;41041;43.162;20.538;2023-05-07T14:16:22;640.90;1612.80
55151;DHT22;41041;43.162;20.538;2023-05-07T14:18:48;640.90;1561.60
55151;DHT22;41041;43.162;20.538;2023-05-07T14:21:14;665.60;1587.20
55151;DHT22;41041;43.162;20.538;2023-05-07T14:23:40;666.00;1561.60
55151;DHT22;41041;43.162;20.538;2023-05-07T14:26:06;665.90;1561.60
55151;DHT22;41041;43.162;20.538;2023-05-07T14:28:39;665.90;1561.60
55151;DHT22;41041;43.162;20.538;2023-05-07T14:31:05;666.50;1587.20
55151;DHT22;41041;43.162;20.538;2023-05-07T14:33:32;691.20;1587.20
55151;DHT22;41041;43.162;20.538;2023-05-07T14:36:15;666.50;1612.80
55151;DHT22;41041;43.162;20.538;2023-05-07T14:38:41;666.40;1561.60
55151;DHT22;41041;43.162;20.538;2023-05-07T14:41:07;666.40;1561.60
55151;DHT22;41041;43.162;20.538;2023-05-07T14:43:37;666.50;1561.60
55151;DHT22;41041;43.162;20.538;2023-05-07T14:46:05;666.50;1612.80
55151;DHT22;41041;43.162;20.538;2023-05-07T14:51:46;666.30;1612.80
55151;DHT22;41041;43.162;20.538;2023-05-07T14:54:12;666.20;1638.40
55151;DHT22;41041;43.162;20.538;2023-05-07T14:56:38;666.20;1561.60
55151;DHT22;41041;43.162;20.538;2023-05-07T14:59:09;666.10;1587.20
55151;DHT22;41041;43.162;20.538;2023-05-07T15:01:36;666.10;1587.20
55151;DHT22;41041;43.162;20.538;2023-05-07T15:04:03;665.80;1587.20
55151;DHT22;41041;43.162;20.538;2023-05-07T15:06:29;665.60;1612.80
55151;DHT22;41041;43.162;20.538;2023-05-07T15:08:56;640.90;1638.40
55151;DHT22;41041;43.162;20.538;2023-05-07T15:11:24;640.60;1561.60
55151;DHT22;41041;43.162;20.538;2023-05-07T15:13:50;640.80;1587.20
55151;DHT22;41041;43.162;20.538;2023-05-07T15:16:16;665.70;1561.60
55151;DHT22;41041;43.162;20.538;2023-05-07T15:18:42;665.70;1587.20
55151;DHT22;41041;43.162;20.538;2023-05-07T15:21:08;665.60;1612.80
55151;DHT22;41041;43.162;20.538;2023-05-07T15:23:34;665.90;1638.40
55151;DHT22;41041;43.162;20.538;2023-05-07T15:26:00;666.20;1638.40
55151;DHT22;41041;43.162;20.538;2023-05-07T15:28:27;666.20;1561.60
55151;DHT22;41041;43.162;20.538;2023-05-07T15:30:54;666.40;1536.00
55151;DHT22;41041;43.162;20.538;2023-05-07T15:33:20;666.20;1510.40
55151;DHT22;41041;43.162;20.538;2023-05-07T15:35:46;666.20;1484.80
55151;DHT22;41041;43.162;20.538;2023-05-07T15:38:12;666.10;1484.80
55151;DHT22;41041;43.162;20.538;2023-05-07T15:40:39;666.10;1459.20
55151;DHT22;41041;43.162;20.538;2023-05-07T15:43:07;665.80;1459.20
55151;DHT22;41041;43.162;20.538;2023-05-07T15:45:38;665.60;1510.40
55151;DHT22;41041;43.162;20.538;2023-05-07T15:48:05;665.60;1484.80
55151;DHT22;41041;43.162;20.538;2023-05-07T15:50:31;665.70;1510.40
55151;DHT22;41041;43.162;20.538;2023-05-07T15:52:59;665.70;1510.40
55151;DHT22;41041;43.162;20.538;2023-05-07T15:55:25;640.80;1433.60
55151;DHT22;41041;43.162;20.538;2023-05-07T15:57:53;640.80;1459.20
55151;DHT22;41041;43.162;20.538;2023-05-07T16:00:20;640.70;1459.20
55151;DHT22;41041;43.162;20.538;2023-05-07T16:07:43;640.90;1561.60
55151;DHT22;41041;43.162;20.538;2023-05-07T16:10:10;640.60;1587.20
55151;DHT22;41041;43.162;20.538;2023-05-07T16:12:36;640.60;1587.20
55151;DHT22;41041;43.162;20.538;2023-05-07T16:17:29;666.00;1587.20
55151;DHT22;41041;43.162;20.538;2023-05-07T16:19:55;665.90;1587.20
55151;DHT22;41041;43.162;20.538;2023-05-07T16:22:23;666.10;1561.60
55151;DHT22;41041;43.162;20.538;2023-05-07T16:24:50;665.90;1587.20
55151;DHT22;41041;43.162;20.538;2023-05-07T16:27:16;665.80;1561.60
55151;DHT22;41041;43.162;20.538;2023-05-07T16:29:42;665.80;1561.60
55151;DHT22;41041;43.162;20.538;2023-05-07T16:32:07;665.80;1561.60
55151;DHT22;41041;43.162;20.538;2023-05-07T16:34:33;665.70;1587.20
55151;DHT22;41041;43.162;20.538;2023-05-07T16:37:02;640.90;1587.20
55151;DHT22;41041;43.162;20.538;2023-05-07T16:39:28;640.80;1561.60
55151;DHT22;41041;43.162;20.538;2023-05-07T16:41:54;640.60;1561.60
55151;DHT22;41041;43.162;20.538;2023-05-07T16:44:20;640.60;1561.60
55151;DHT22;41041;43.162;20.538;2023-05-07T16:46:46;640.50;1587.20
55151;DHT22;41041;43.162;20.538;2023-05-07T16:49:12;640.40;1587.20
55151;DHT22;41041;43.162;20.538;2023-05-07T16:51:40;640.10;1612.80
55151;DHT22;41041;43.162;20.538;2023-05-07T16:54:08;615.30;1638.40
55151;DHT22;41041;43.162;20.538;2023-05-07T16:56:35;615.10;1638.40
55151;DHT22;41041;43.162;20.538;2023-05-07T17:01:27;615.10;1664.00
55151;DHT22;41041;43.162;20.538;2023-05-07T17:03:57;614.90;1638.40
55151;DHT22;41041;43.162;20.538;2023-05-07T17:06:23;614.90;1638.40
55151;DHT22;41041;43.162;20.538;2023-05-07T17:09:02;614.70;1638.40
55151;DHT22;41041;43.162;20.538;2023-05-07T17:11:27;614.70;1638.40
55151;DHT22;41041;43.162;20.538;2023-05-07T17:21:25;614.70;1689.60
55151;DHT22;41041;43.162;20.538;2023-05-07T17:23:51;614.50;1689.60
55151;DHT22;41041;43.162;20.538;2023-05-07T17:26:22;589.70;1715.20
55151;DHT22;41041;43.162;20.538;2023-05-07T17:28:48;589.60;1715.20
55151;DHT22;41041;43.162;20.538;2023-05-07T17:31:14;589.50;1766.40
55151;DHT22;41041;43.162;20.538;2023-05-07T17:33:40;589.50;1740.80
55151;DHT22;41041;43.162;20.538;2023-05-07T17:36:06;589.40;1715.20
55151;DHT22;41041;43.162;20.538;2023-05-07T17:38:33;589.40;1740.80
55151;DHT22;41041;43.162;20.538;2023-05-07T17:40:59;589.30;1740.80
55151;DHT22;41041;43.162;20.538;2023-05-07T17:43:26;589.10;1766.40
55151;DHT22;41041;43.162;20.538;2023-05-07T17:45:53;589.10;1715.20
55151;DHT22;41041;43.162;20.538;2023-05-07T17:48:21;589.20;1766.40
55151;DHT22;41041;43.162;20.538;2023-05-07T17:50:47;589.10;1740.80
55151;DHT22;41041;43.162;20.538;2023-05-07T17:53:13;589.10;1740.80
55151;DHT22;41041;43.162;20.538;2023-05-07T17:55:43;589.20;1766.40
55151;DHT22;41041;43.162;20.538;2023-05-07T17:58:14;589.10;1792.00
55151;DHT22;41041;43.162;20.538;2023-05-07T18:00:46;589.10;1817.60
55151;DHT22;41041;43.162;20.538;2023-05-07T18:03:12;589.00;1843.20
55151;DHT22;41041;43.162;20.538;2023-05-07T18:05:39;588.90;1843.20
55151;DHT22;41041;43.162;20.538;2023-05-07T18:08:08;588.80;1894.40
55151;DHT22;41041;43.162;20.538;2023-05-07T18:10:35;588.80;1868.80
55151;DHT22;41041;43.162;20.538;2023-05-07T18:13:00;588.80;1868.80
55151;DHT22;41041;43.162;20.538;2023-05-07T18:15:27;564.10;1868.80
55151;DHT22;41041;43.162;20.538;2023-05-07T18:17:56;564.10;1868.80
55151;DHT22;41041;43.162;20.538;2023-05-07T18:20:22;564.00;1894.40
55151;DHT22;41041;43.162;20.538;2023-05-07T18:22:49;563.80;1945.60
55151;DHT22;41041;43.162;20.538;2023-05-07T18:25:15;563.80;1945.60
55151;DHT22;41041;43.162;20.538;2023-05-07T18:27:41;563.70;1971.20
55151;DHT22;41041;43.162;20.538;2023-05-07T18:30:10;563.90;1945.60
55151;DHT22;41041;43.162;20.538;2023-05-07T18:32:36;563.70;1996.80
55151;DHT22;41041;43.162;20.538;2023-05-07T18:35:02;563.70;1971.20
55151;DHT22;41041;43.162;20.538;2023-05-07T18:37:28;563.60;1996.80
55151;DHT22;41041;43.162;20.538;2023-05-07T18:39:57;563.50;1996.80
55151;DHT22;41041;43.162;20.538;2023-05-07T18:42:26;563.50;2022.40
55151;DHT22;41041;43.162;20.538;2023-05-07T18:44:56;563.40;2048.00
55151;DHT22;41041;43.162;20.538;2023-05-07T18:47:30;563.30;2073.60
55151;DHT22;41041;43.162;20.538;2023-05-07T18:49:55;538.50;2073.60
55151;DHT22;41041;43.162;20.538;2023-05-07T18:52:25;538.50;2073.60
55151;DHT22;41041;43.162;20.538;2023-05-07T18:54:51;538.50;2073.60
55151;DHT22;41041;43.162;20.538;2023-05-07T18:57:22;538.50;2073.60
55151;DHT22;41041;43.162;20.538;2023-05-07T18:59:51;538.50;2073.60
55151;DHT22;41041;43.162;20.538;2023-05-07T19:02:20;538.40;2099.20
55151;DHT22;41041;43.162;20.538;2023-05-07T19:04:46;538.40;2124.80
55151;DHT22;41041;43.162;20.538;2023-05-07T19:07:15;538.30;2124.80
55151;DHT22;41041;43.162;20.538;2023-05-07T19:09:42;538.20;2124.80
55151;DHT22;41041;43.162;20.538;2023-05-07T19:12:08;538.20;2099.20
55151;DHT22;41041;43.162;20.538;2023-05-07T19:14:37;538.20;2099.20
55151;DHT22;41041;43.162;20.538;2023-05-07T19:17:07;538.10;2124.80
55151;DHT22;41041;43.162;20.538;2023-05-07T19:19:33;538.10;2124.80
55151;DHT22;41041;43.162;20.538;2023-05-07T19:22:06;537.90;2176.00
55151;DHT22;41041;43.162;20.538;2023-05-07T19:24:32;537.90;2201.60
55151;DHT22;41041;43.162;20.538;2023-05-07T19:27:01;537.90;2176.00
55151;DHT22;41041;43.162;20.538;2023-05-07T19:29:28;537.90;2201.60
55151;DHT22;41041;43.162;20.538;2023-05-07T19:31:54;537.70;2201.60
55151;DHT22;41041;43.162;20.538;2023-05-07T19:34:20;537.60;2227.20
55151;DHT22;41041;43.162;20.538;2023-05-07T19:36:45;537.60;2201.60
55151;DHT22;41041;43.162;20.538;2023-05-07T19:39:11;512.90;2227.20
55151;DHT22;41041;43.162;20.538;2023-05-07T19:41:37;512.70;2252.80
55151;DHT22;41041;43.162;20.538;2023-05-07T19:44:03;512.70;2227.20
55151;DHT22;41041;43.162;20.538;2023-05-07T19:46:29;512.60;2227.20
55151;DHT22;41041;43.162;20.538;2023-05-07T19:48:55;512.60;2227.20
55151;DHT22;41041;43.162;20.538;2023-05-07T19:51:20;512.60;2227.20
55151;DHT22;41041;43.162;20.538;2023-05-07T19:53:46;512.60;2201.60
55151;DHT22;41041;43.162;20.538;2023-05-07T19:56:12;512.30;2252.80
55151;DHT22;41041;43.162;20.538;2023-05-07T19:58:39;512.20;2278.40
55151;DHT22;41041;43.162;20.538;2023-05-07T20:01:07;512.00;2355.20
55151;DHT22;41041;43.162;20.538;2023-05-07T20:03:33;512.00;2355.20
55151;DHT22;41041;43.162;20.538;2023-05-07T20:15:45;512.20;2329.60
55151;DHT22;41041;43.162;20.538;2023-05-07T20:18:10;512.00;2355.20
55151;DHT22;41041;43.162;20.538;2023-05-07T20:20:39;487.30;2355.20
55151;DHT22;41041;43.162;20.538;2023-05-07T20:23:05;487.30;2329.60
55151;DHT22;41041;43.162;20.538;2023-05-07T20:25:31;487.20;2355.20
55151;DHT22;41041;43.162;20.538;2023-05-07T20:27:56;487.00;2355.20
55151;DHT22;41041;43.162;20.538;2023-05-07T20:30:24;487.10;2355.20
55151;DHT22;41041;43.162;20.538;2023-05-07T20:32:52;487.20;2304.00
55151;DHT22;41041;43.162;20.538;2023-05-07T20:40:10;487.20;2355.20
55151;DHT22;41041;43.162;20.538;2023-05-07T20:42:36;487.20;2380.80
55151;DHT22;41041;43.162;20.538;2023-05-07T20:45:02;486.90;2380.80
55151;DHT22;41041;43.162;20.538;2023-05-07T20:52:24;486.90;2380.80
55151;DHT22;41041;43.162;20.538;2023-05-07T20:54:50;486.70;2380.80
55151;DHT22;41041;43.162;20.538;2023-05-07T20:57:15;486.60;2380.80
55151;DHT22;41041;43.162;20.538;2023-05-07T20:59:44;486.60;2380.80
55151;DHT22;41041;43.162;20.538;2023-05-07T23:24:52;435.80;2355.20
55151;DHT22;41041;43.162;20.538;2023-05-07T23:27:18;435.70;2355.20
55151;DHT22;41041;43.162;20.538;2023-05-07T23:29:44;435.60;2355.20
55151;DHT22;41041;43.162;20.538;2023-05-07T23:32:11;435.60;2355.20
55151;DHT22;41041;43.162;20.538;2023-05-07T23:34:36;435.60;2355.20
55151;DHT22;41041;43.162;20.538;2023-05-07T23:37:02;435.70;2355.20
55151;DHT22;41041;43.162;20.538;2023-05-07T23:39:28;435.70;2355.20
55151;DHT22;41041;43.162;20.538;2023-05-07T23:41:54;435.70;2355.20
55151;DHT22;41041;43.162;20.538;2023-05-07T23:44:20;435.60;2355.20
55151;DHT22;41041;43.162;20.538;2023-05-07T23:46:46;435.70;2355.20
55151;DHT22;41041;43.162;20.538;2023-05-07T23:49:11;435.70;2355.20
55151;DHT22;41041;43.162;20.538;2023-05-07T23:52:09;435.80;2355.20
55151;DHT22;41041;43.162;20.538;2023-05-07T23:54:35;435.80;2355.20
55151;DHT22;41041;43.162;20.538;2023-05-07T23:57:01;435.80;2355.20
55151;DHT22;41041;43.162;20.538;2023-05-07T23:59:28;435.70;2355.20
